sensor_id;sensor_type;location;lat;lon;timestamp;P1;durP1;ratioP1;P2;durP2;ratioP2
81685;SDS011;71102;50.960;6.888;2023-12-20T00:01:25;8.93;;;5.10;;
81685;SDS011;71102;50.960;6.888;2023-12-20T00:03:51;9.20;;;5.50;;
81685;SDS011;71102;50.960;6.888;2023-12-20T00:06:16;9.63;;;5.30;;
81685;SDS011;71102;50.960;6.888;2023-12-20T00:08:41;9.50;;;5.13;;
81685;SDS011;71102;50.960;6.888;2023-12-20T00:11:06;9.73;;;5.73;;
81685;SDS011;71102;50.960;6.888;2023-12-20T00:13:31;10.23;;;5.40;;
81685;SDS011;71102;50.960;6.888;2023-12-20T00:15:57;10.40;;;5.33;;
81685;SDS011;71102;50.960;6.888;2023-12-20T00:18:22;9.63;;;5.20;;
81685;SDS011;71102;50.960;6.888;2023-12-20T00:20:47;9.15;;;4.85;;
81685;SDS011;71102;50.960;6.888;2023-12-20T00:23:13;8.57;;;4.90;;
81685;SDS011;71102;50.960;6.888;2023-12-20T00:25:38;9.57;;;5.40;;
81685;SDS011;71102;50.960;6.888;2023-12-20T00:28:03;8.33;;;4.47;;
81685;SDS011;71102;50.960;6.888;2023-12-20T00:30:28;8.33;;;4.20;;
81685;SDS011;71102;50.960;6.888;2023-12-20T00:32:53;8.50;;;5.10;;
81685;SDS011;71102;50.960;6.888;2023-12-20T00:35:19;8.23;;;4.10;;
81685;SDS011;71102;50.960;6.888;2023-12-20T00:37:44;8.30;;;3.63;;
81685;SDS011;71102;50.960;6.888;2023-12-20T00:40:09;9.67;;;3.80;;
81685;SDS011;71102;50.960;6.888;2023-12-20T00:42:35;7.20;;;2.22;;
81685;SDS011;71102;50.960;6.888;2023-12-20T00:45:00;6.93;;;2.85;;
81685;SDS011;71102;50.960;6.888;2023-12-20T00:47:25;6.57;;;2.70;;
81685;SDS011;71102;50.960;6.888;2023-12-20T00:49:51;6.32;;;2.78;;
81685;SDS011;71102;50.960;6.888;2023-12-20T00:52:16;7.77;;;3.10;;
81685;SDS011;71102;50.960;6.888;2023-12-20T00:54:41;7.80;;;3.13;;
81685;SDS011;71102;50.960;6.888;2023-12-20T00:57:06;7.63;;;3.27;;
81685;SDS011;71102;50.960;6.888;2023-12-20T00:59:31;9.03;;;4.33;;
81685;SDS011;71102;50.960;6.888;2023-12-20T01:01:57;7.07;;;3.00;;
81685;SDS011;71102;50.960;6.888;2023-12-20T01:04:22;6.87;;;3.57;;
81685;SDS011;71102;50.960;6.888;2023-12-20T01:06:47;7.40;;;3.53;;
81685;SDS011;71102;50.960;6.888;2023-12-20T01:09:12;7.67;;;3.00;;
81685;SDS011;71102;50.960;6.888;2023-12-20T01:11:37;8.70;;;4.20;;
81685;SDS011;71102;50.960;6.888;2023-12-20T01:14:03;9.23;;;3.80;;
81685;SDS011;71102;50.960;6.888;2023-12-20T01:16:28;7.67;;;3.43;;
81685;SDS011;71102;50.960;6.888;2023-12-20T01:18:53;8.93;;;3.70;;
81685;SDS011;71102;50.960;6.888;2023-12-20T01:21:18;7.70;;;3.47;;
81685;SDS011;71102;50.960;6.888;2023-12-20T01:23:43;9.23;;;3.87;;
81685;SDS011;71102;50.960;6.888;2023-12-20T01:26:09;8.37;;;3.60;;
81685;SDS011;71102;50.960;6.888;2023-12-20T01:28:34;8.87;;;3.00;;
81685;SDS011;71102;50.960;6.888;2023-12-20T01:30:59;10.80;;;3.63;;
81685;SDS011;71102;50.960;6.888;2023-12-20T01:33:24;7.57;;;4.30;;
81685;SDS011;71102;50.960;6.888;2023-12-20T01:35:49;12.27;;;4.60;;
81685;SDS011;71102;50.960;6.888;2023-12-20T01:38:15;10.77;;;5.23;;
81685;SDS011;71102;50.960;6.888;2023-12-20T01:40:40;10.50;;;5.00;;
81685;SDS011;71102;50.960;6.888;2023-12-20T01:43:08;11.13;;;5.13;;
81685;SDS011;71102;50.960;6.888;2023-12-20T01:45:34;11.73;;;5.88;;
81685;SDS011;71102;50.960;6.888;2023-12-20T01:47:59;17.30;;;6.63;;
81685;SDS011;71102;50.960;6.888;2023-12-20T01:50:24;13.40;;;5.47;;
81685;SDS011;71102;50.960;6.888;2023-12-20T01:52:50;12.07;;;5.93;;
81685;SDS011;71102;50.960;6.888;2023-12-20T01:55:15;13.55;;;7.65;;
81685;SDS011;71102;50.960;6.888;2023-12-20T01:57:41;14.40;;;6.90;;
81685;SDS011;71102;50.960;6.888;2023-12-20T02:00:06;15.95;;;5.93;;
81685;SDS011;71102;50.960;6.888;2023-12-20T02:02:32;16.92;;;6.05;;
81685;SDS011;71102;50.960;6.888;2023-12-20T02:04:58;15.95;;;5.70;;
81685;SDS011;71102;50.960;6.888;2023-12-20T02:07:23;15.00;;;6.37;;
81685;SDS011;71102;50.960;6.888;2023-12-20T02:09:48;12.03;;;5.00;;
81685;SDS011;71102;50.960;6.888;2023-12-20T02:12:13;19.13;;;5.83;;
81685;SDS011;71102;50.960;6.888;2023-12-20T02:14:39;11.43;;;4.83;;
81685;SDS011;71102;50.960;6.888;2023-12-20T02:17:04;11.63;;;5.15;;
81685;SDS011;71102;50.960;6.888;2023-12-20T02:19:29;15.60;;;5.00;;
81685;SDS011;71102;50.960;6.888;2023-12-20T02:22:10;10.13;;;4.80;;
81685;SDS011;71102;50.960;6.888;2023-12-20T02:24:35;15.13;;;4.05;;
81685;SDS011;71102;50.960;6.888;2023-12-20T02:27:00;14.40;;;4.03;;
81685;SDS011;71102;50.960;6.888;2023-12-20T02:29:25;14.90;;;4.03;;
81685;SDS011;71102;50.960;6.888;2023-12-20T02:31:51;13.77;;;3.80;;
81685;SDS011;71102;50.960;6.888;2023-12-20T02:34:16;9.70;;;2.90;;
81685;SDS011;71102;50.960;6.888;2023-12-20T02:36:41;12.77;;;2.70;;
81685;SDS011;71102;50.960;6.888;2023-12-20T02:39:07;13.57;;;2.33;;
81685;SDS011;71102;50.960;6.888;2023-12-20T02:41:32;10.67;;;2.93;;
81685;SDS011;71102;50.960;6.888;2023-12-20T02:43:57;8.67;;;2.80;;
81685;SDS011;71102;50.960;6.888;2023-12-20T02:46:22;10.50;;;2.67;;
81685;SDS011;71102;50.960;6.888;2023-12-20T02:48:48;12.30;;;2.55;;
81685;SDS011;71102;50.960;6.888;2023-12-20T02:51:13;12.33;;;2.87;;
81685;SDS011;71102;50.960;6.888;2023-12-20T02:53:38;10.40;;;2.07;;
81685;SDS011;71102;50.960;6.888;2023-12-20T02:56:03;8.00;;;2.03;;
81685;SDS011;71102;50.960;6.888;2023-12-20T02:58:29;10.93;;;2.50;;
81685;SDS011;71102;50.960;6.888;2023-12-20T03:00:54;11.27;;;2.43;;
81685;SDS011;71102;50.960;6.888;2023-12-20T03:03:19;12.43;;;2.73;;
81685;SDS011;71102;50.960;6.888;2023-12-20T03:05:45;9.47;;;3.13;;
81685;SDS011;71102;50.960;6.888;2023-12-20T03:08:10;7.57;;;2.42;;
81685;SDS011;71102;50.960;6.888;2023-12-20T03:10:35;6.33;;;1.63;;
81685;SDS011;71102;50.960;6.888;2023-12-20T03:13:00;7.20;;;1.50;;
81685;SDS011;71102;50.960;6.888;2023-12-20T03:15:25;9.50;;;1.87;;
81685;SDS011;71102;50.960;6.888;2023-12-20T03:17:51;8.67;;;1.63;;
81685;SDS011;71102;50.960;6.888;2023-12-20T03:20:16;9.87;;;2.10;;
81685;SDS011;71102;50.960;6.888;2023-12-20T03:22:41;11.80;;;1.80;;
81685;SDS011;71102;50.960;6.888;2023-12-20T03:25:06;8.33;;;1.30;;
81685;SDS011;71102;50.960;6.888;2023-12-20T03:27:32;8.75;;;2.03;;
81685;SDS011;71102;50.960;6.888;2023-12-20T03:29:57;9.20;;;1.67;;
81685;SDS011;71102;50.960;6.888;2023-12-20T03:32:22;9.03;;;2.43;;
81685;SDS011;71102;50.960;6.888;2023-12-20T03:34:47;10.50;;;2.70;;
81685;SDS011;71102;50.960;6.888;2023-12-20T03:37:12;9.00;;;1.93;;
81685;SDS011;71102;50.960;6.888;2023-12-20T03:39:37;13.90;;;2.67;;
81685;SDS011;71102;50.960;6.888;2023-12-20T03:42:03;13.00;;;2.63;;
81685;SDS011;71102;50.960;6.888;2023-12-20T03:44:28;12.38;;;2.42;;
81685;SDS011;71102;50.960;6.888;2023-12-20T03:46:53;12.90;;;2.93;;
81685;SDS011;71102;50.960;6.888;2023-12-20T03:49:18;13.67;;;1.80;;
81685;SDS011;71102;50.960;6.888;2023-12-20T03:51:44;11.67;;;3.00;;
81685;SDS011;71102;50.960;6.888;2023-12-20T03:54:09;7.57;;;2.27;;
81685;SDS011;71102;50.960;6.888;2023-12-20T03:56:34;13.27;;;2.30;;
81685;SDS011;71102;50.960;6.888;2023-12-20T03:58:59;14.37;;;2.80;;
81685;SDS011;71102;50.960;6.888;2023-12-20T04:01:24;10.97;;;2.10;;
81685;SDS011;71102;50.960;6.888;2023-12-20T04:03:49;11.00;;;2.30;;
81685;SDS011;71102;50.960;6.888;2023-12-20T04:06:18;11.03;;;2.13;;
81685;SDS011;71102;50.960;6.888;2023-12-20T04:08:43;8.50;;;2.60;;
81685;SDS011;71102;50.960;6.888;2023-12-20T04:11:08;12.33;;;2.30;;
81685;SDS011;71102;50.960;6.888;2023-12-20T04:13:33;11.47;;;2.43;;
81685;SDS011;71102;50.960;6.888;2023-12-20T04:15:58;11.20;;;2.17;;
81685;SDS011;71102;50.960;6.888;2023-12-20T04:18:23;7.60;;;2.10;;
81685;SDS011;71102;50.960;6.888;2023-12-20T04:20:49;11.73;;;2.40;;
81685;SDS011;71102;50.960;6.888;2023-12-20T04:23:14;11.07;;;2.13;;
81685;SDS011;71102;50.960;6.888;2023-12-20T04:25:39;10.87;;;2.60;;
81685;SDS011;71102;50.960;6.888;2023-12-20T04:28:04;9.83;;;2.20;;
81685;SDS011;71102;50.960;6.888;2023-12-20T04:30:29;10.07;;;1.90;;
81685;SDS011;71102;50.960;6.888;2023-12-20T04:32:55;10.33;;;2.90;;
81685;SDS011;71102;50.960;6.888;2023-12-20T04:35:20;15.40;;;2.73;;
81685;SDS011;71102;50.960;6.888;2023-12-20T04:37:45;9.50;;;2.23;;
81685;SDS011;71102;50.960;6.888;2023-12-20T04:40:10;14.57;;;2.47;;
81685;SDS011;71102;50.960;6.888;2023-12-20T04:42:35;9.63;;;2.20;;
81685;SDS011;71102;50.960;6.888;2023-12-20T04:45:02;11.23;;;2.80;;
81685;SDS011;71102;50.960;6.888;2023-12-20T04:47:27;11.20;;;2.73;;
81685;SDS011;71102;50.960;6.888;2023-12-20T04:49:52;11.27;;;2.60;;
81685;SDS011;71102;50.960;6.888;2023-12-20T04:52:17;8.73;;;2.33;;
81685;SDS011;71102;50.960;6.888;2023-12-20T04:54:42;11.17;;;2.97;;
81685;SDS011;71102;50.960;6.888;2023-12-20T04:57:08;14.70;;;2.57;;
81685;SDS011;71102;50.960;6.888;2023-12-20T04:59:33;10.77;;;2.93;;
81685;SDS011;71102;50.960;6.888;2023-12-20T05:01:58;13.80;;;3.20;;
81685;SDS011;71102;50.960;6.888;2023-12-20T05:04:23;8.50;;;2.23;;
81685;SDS011;71102;50.960;6.888;2023-12-20T05:06:48;8.13;;;2.57;;
81685;SDS011;71102;50.960;6.888;2023-12-20T05:09:14;13.07;;;2.20;;
81685;SDS011;71102;50.960;6.888;2023-12-20T05:11:39;11.63;;;2.40;;
81685;SDS011;71102;50.960;6.888;2023-12-20T05:14:04;14.20;;;2.20;;
81685;SDS011;71102;50.960;6.888;2023-12-20T05:16:29;10.00;;;2.80;;
81685;SDS011;71102;50.960;6.888;2023-12-20T05:18:54;9.10;;;2.53;;
81685;SDS011;71102;50.960;6.888;2023-12-20T05:21:19;11.13;;;3.00;;
81685;SDS011;71102;50.960;6.888;2023-12-20T05:23:45;9.13;;;2.40;;
81685;SDS011;71102;50.960;6.888;2023-12-20T05:26:10;16.52;;;3.50;;
81685;SDS011;71102;50.960;6.888;2023-12-20T05:28:35;9.80;;;2.47;;
81685;SDS011;71102;50.960;6.888;2023-12-20T05:31:00;11.77;;;2.67;;
81685;SDS011;71102;50.960;6.888;2023-12-20T05:33:26;10.00;;;3.03;;
81685;SDS011;71102;50.960;6.888;2023-12-20T05:35:51;14.80;;;2.77;;
81685;SDS011;71102;50.960;6.888;2023-12-20T05:38:16;12.43;;;3.13;;
81685;SDS011;71102;50.960;6.888;2023-12-20T05:40:41;12.13;;;2.33;;
81685;SDS011;71102;50.960;6.888;2023-12-20T05:43:06;12.10;;;4.13;;
81685;SDS011;71102;50.960;6.888;2023-12-20T05:45:32;9.83;;;3.00;;
81685;SDS011;71102;50.960;6.888;2023-12-20T05:47:57;13.70;;;2.80;;
81685;SDS011;71102;50.960;6.888;2023-12-20T05:50:22;9.63;;;2.20;;
81685;SDS011;71102;50.960;6.888;2023-12-20T05:52:47;12.00;;;2.43;;
81685;SDS011;71102;50.960;6.888;2023-12-20T05:55:12;9.73;;;2.87;;
81685;SDS011;71102;50.960;6.888;2023-12-20T05:57:38;11.43;;;2.43;;
81685;SDS011;71102;50.960;6.888;2023-12-20T06:00:03;12.47;;;3.00;;
81685;SDS011;71102;50.960;6.888;2023-12-20T06:02:37;10.52;;;2.90;;
81685;SDS011;71102;50.960;6.888;2023-12-20T06:05:04;11.57;;;2.90;;
81685;SDS011;71102;50.960;6.888;2023-12-20T06:07:29;14.90;;;3.05;;
81685;SDS011;71102;50.960;6.888;2023-12-20T06:09:54;12.27;;;2.50;;
81685;SDS011;71102;50.960;6.888;2023-12-20T06:12:19;11.00;;;4.03;;
81685;SDS011;71102;50.960;6.888;2023-12-20T06:14:45;12.07;;;2.63;;
81685;SDS011;71102;50.960;6.888;2023-12-20T06:17:10;10.20;;;2.60;;
81685;SDS011;71102;50.960;6.888;2023-12-20T06:19:35;13.07;;;3.63;;
81685;SDS011;71102;50.960;6.888;2023-12-20T06:22:00;13.70;;;3.00;;
81685;SDS011;71102;50.960;6.888;2023-12-20T06:24:25;10.20;;;2.63;;
81685;SDS011;71102;50.960;6.888;2023-12-20T06:26:51;11.73;;;2.70;;
81685;SDS011;71102;50.960;6.888;2023-12-20T06:29:16;13.20;;;2.70;;
81685;SDS011;71102;50.960;6.888;2023-12-20T06:31:41;11.23;;;2.57;;
81685;SDS011;71102;50.960;6.888;2023-12-20T06:34:06;15.03;;;2.80;;
81685;SDS011;71102;50.960;6.888;2023-12-20T06:36:31;12.07;;;2.77;;
81685;SDS011;71102;50.960;6.888;2023-12-20T06:38:57;11.17;;;2.10;;
81685;SDS011;71102;50.960;6.888;2023-12-20T06:41:22;15.10;;;3.50;;
81685;SDS011;71102;50.960;6.888;2023-12-20T06:43:47;12.53;;;2.40;;
81685;SDS011;71102;50.960;6.888;2023-12-20T06:46:12;8.87;;;2.13;;
81685;SDS011;71102;50.960;6.888;2023-12-20T06:48:37;14.20;;;3.00;;
81685;SDS011;71102;50.960;6.888;2023-12-20T06:51:03;10.60;;;2.73;;
81685;SDS011;71102;50.960;6.888;2023-12-20T06:53:28;12.13;;;2.50;;
81685;SDS011;71102;50.960;6.888;2023-12-20T06:55:53;20.37;;;2.70;;
81685;SDS011;71102;50.960;6.888;2023-12-20T06:58:18;13.88;;;2.47;;
81685;SDS011;71102;50.960;6.888;2023-12-20T07:00:43;14.53;;;2.47;;
81685;SDS011;71102;50.960;6.888;2023-12-20T07:03:09;10.73;;;2.73;;
81685;SDS011;71102;50.960;6.888;2023-12-20T07:05:34;9.83;;;2.30;;
81685;SDS011;71102;50.960;6.888;2023-12-20T07:07:59;8.70;;;2.53;;
81685;SDS011;71102;50.960;6.888;2023-12-20T07:10:24;8.63;;;2.73;;
81685;SDS011;71102;50.960;6.888;2023-12-20T07:12:49;14.67;;;3.07;;
81685;SDS011;71102;50.960;6.888;2023-12-20T07:15:15;13.53;;;2.90;;
81685;SDS011;71102;50.960;6.888;2023-12-20T07:17:40;11.40;;;2.37;;
81685;SDS011;71102;50.960;6.888;2023-12-20T07:20:05;11.43;;;2.87;;
81685;SDS011;71102;50.960;6.888;2023-12-20T07:22:31;12.52;;;2.13;;
81685;SDS011;71102;50.960;6.888;2023-12-20T07:24:56;16.60;;;3.33;;
81685;SDS011;71102;50.960;6.888;2023-12-20T07:27:21;14.20;;;3.83;;
81685;SDS011;71102;50.960;6.888;2023-12-20T07:29:46;10.10;;;2.50;;
81685;SDS011;71102;50.960;6.888;2023-12-20T07:32:11;12.03;;;2.30;;
81685;SDS011;71102;50.960;6.888;2023-12-20T07:34:37;15.30;;;3.13;;
81685;SDS011;71102;50.960;6.888;2023-12-20T07:37:02;9.87;;;3.37;;
81685;SDS011;71102;50.960;6.888;2023-12-20T07:39:27;11.43;;;2.93;;
81685;SDS011;71102;50.960;6.888;2023-12-20T07:41:52;17.07;;;3.43;;
81685;SDS011;71102;50.960;6.888;2023-12-20T07:44:17;11.07;;;3.00;;
81685;SDS011;71102;50.960;6.888;2023-12-20T07:46:43;12.33;;;4.03;;
81685;SDS011;71102;50.960;6.888;2023-12-20T07:49:08;12.83;;;2.83;;
81685;SDS011;71102;50.960;6.888;2023-12-20T07:51:33;14.90;;;3.03;;
81685;SDS011;71102;50.960;6.888;2023-12-20T07:53:58;13.23;;;3.53;;
81685;SDS011;71102;50.960;6.888;2023-12-20T07:56:23;14.57;;;3.30;;
81685;SDS011;71102;50.960;6.888;2023-12-20T07:58:48;15.13;;;3.30;;
81685;SDS011;71102;50.960;6.888;2023-12-20T08:01:15;12.20;;;2.63;;
81685;SDS011;71102;50.960;6.888;2023-12-20T08:03:40;15.38;;;3.78;;
81685;SDS011;71102;50.960;6.888;2023-12-20T08:06:06;13.63;;;3.10;;
81685;SDS011;71102;50.960;6.888;2023-12-20T08:08:31;10.23;;;2.67;;
81685;SDS011;71102;50.960;6.888;2023-12-20T08:10:56;16.93;;;4.07;;
81685;SDS011;71102;50.960;6.888;2023-12-20T08:13:21;11.90;;;3.27;;
81685;SDS011;71102;50.960;6.888;2023-12-20T08:15:46;9.60;;;2.87;;
81685;SDS011;71102;50.960;6.888;2023-12-20T08:18:12;9.67;;;2.60;;
81685;SDS011;71102;50.960;6.888;2023-12-20T08:20:37;11.43;;;2.87;;
81685;SDS011;71102;50.960;6.888;2023-12-20T08:23:02;15.00;;;3.53;;
81685;SDS011;71102;50.960;6.888;2023-12-20T08:25:27;13.90;;;2.90;;
81685;SDS011;71102;50.960;6.888;2023-12-20T08:27:52;13.17;;;3.40;;
81685;SDS011;71102;50.960;6.888;2023-12-20T08:30:18;13.70;;;2.77;;
81685;SDS011;71102;50.960;6.888;2023-12-20T08:32:43;10.27;;;3.00;;
81685;SDS011;71102;50.960;6.888;2023-12-20T08:35:08;13.43;;;3.20;;
81685;SDS011;71102;50.960;6.888;2023-12-20T08:37:33;11.87;;;3.17;;
81685;SDS011;71102;50.960;6.888;2023-12-20T08:39:59;14.50;;;2.70;;
81685;SDS011;71102;50.960;6.888;2023-12-20T08:42:24;11.47;;;2.97;;
81685;SDS011;71102;50.960;6.888;2023-12-20T08:44:49;9.70;;;2.80;;
81685;SDS011;71102;50.960;6.888;2023-12-20T08:47:14;14.13;;;3.10;;
81685;SDS011;71102;50.960;6.888;2023-12-20T08:49:39;12.30;;;3.23;;
81685;SDS011;71102;50.960;6.888;2023-12-20T08:52:05;9.23;;;2.60;;
81685;SDS011;71102;50.960;6.888;2023-12-20T08:54:30;14.67;;;3.10;;
81685;SDS011;71102;50.960;6.888;2023-12-20T08:56:55;13.60;;;2.80;;
81685;SDS011;71102;50.960;6.888;2023-12-20T08:59:20;12.83;;;2.80;;
81685;SDS011;71102;50.960;6.888;2023-12-20T09:01:46;12.70;;;3.33;;
81685;SDS011;71102;50.960;6.888;2023-12-20T09:04:11;15.80;;;2.67;;
81685;SDS011;71102;50.960;6.888;2023-12-20T09:06:36;11.93;;;3.63;;
81685;SDS011;71102;50.960;6.888;2023-12-20T09:09:01;10.40;;;3.03;;
81685;SDS011;71102;50.960;6.888;2023-12-20T09:11:26;18.43;;;3.83;;
81685;SDS011;71102;50.960;6.888;2023-12-20T09:13:52;13.57;;;3.37;;
81685;SDS011;71102;50.960;6.888;2023-12-20T09:16:17;11.17;;;3.07;;
81685;SDS011;71102;50.960;6.888;2023-12-20T09:18:42;9.37;;;3.30;;
81685;SDS011;71102;50.960;6.888;2023-12-20T09:21:07;11.97;;;2.43;;
81685;SDS011;71102;50.960;6.888;2023-12-20T09:23:32;12.70;;;2.50;;
81685;SDS011;71102;50.960;6.888;2023-12-20T09:25:58;10.23;;;2.67;;
81685;SDS011;71102;50.960;6.888;2023-12-20T09:28:23;8.83;;;2.83;;
81685;SDS011;71102;50.960;6.888;2023-12-20T09:30:48;10.47;;;3.27;;
81685;SDS011;71102;50.960;6.888;2023-12-20T09:33:14;13.47;;;3.90;;
81685;SDS011;71102;50.960;6.888;2023-12-20T09:35:39;13.85;;;3.00;;
81685;SDS011;71102;50.960;6.888;2023-12-20T09:38:04;12.07;;;3.00;;
81685;SDS011;71102;50.960;6.888;2023-12-20T09:40:30;14.57;;;3.30;;
81685;SDS011;71102;50.960;6.888;2023-12-20T09:42:57;7.85;;;2.20;;
81685;SDS011;71102;50.960;6.888;2023-12-20T09:45:23;13.90;;;2.88;;
81685;SDS011;71102;50.960;6.888;2023-12-20T09:47:52;10.60;;;2.10;;
81685;SDS011;71102;50.960;6.888;2023-12-20T09:52:43;15.38;;;2.95;;
81685;SDS011;71102;50.960;6.888;2023-12-20T09:55:08;10.93;;;2.15;;
81685;SDS011;71102;50.960;6.888;2023-12-20T09:57:33;13.27;;;3.28;;
81685;SDS011;71102;50.960;6.888;2023-12-20T09:59:59;13.55;;;3.70;;
81685;SDS011;71102;50.960;6.888;2023-12-20T10:02:25;17.53;;;2.40;;
81685;SDS011;71102;50.960;6.888;2023-12-20T10:04:50;10.80;;;2.85;;
81685;SDS011;71102;50.960;6.888;2023-12-20T10:07:15;17.40;;;2.70;;
81685;SDS011;71102;50.960;6.888;2023-12-20T10:09:41;12.65;;;3.45;;
81685;SDS011;71102;50.960;6.888;2023-12-20T10:12:06;15.40;;;2.33;;
81685;SDS011;71102;50.960;6.888;2023-12-20T10:14:32;8.37;;;2.40;;
81685;SDS011;71102;50.960;6.888;2023-12-20T10:17:03;10.93;;;3.47;;
81685;SDS011;71102;50.960;6.888;2023-12-20T10:19:29;9.25;;;1.90;;
81685;SDS011;71102;50.960;6.888;2023-12-20T10:21:54;9.17;;;2.20;;
81685;SDS011;71102;50.960;6.888;2023-12-20T10:24:19;9.30;;;1.93;;
81685;SDS011;71102;50.960;6.888;2023-12-20T10:26:45;16.85;;;3.28;;
81685;SDS011;71102;50.960;6.888;2023-12-20T10:29:10;11.00;;;2.67;;
81685;SDS011;71102;50.960;6.888;2023-12-20T10:31:35;11.43;;;2.80;;
81685;SDS011;71102;50.960;6.888;2023-12-20T10:34:01;11.18;;;2.22;;
81685;SDS011;71102;50.960;6.888;2023-12-20T10:36:27;9.07;;;2.30;;
81685;SDS011;71102;50.960;6.888;2023-12-20T10:38:53;11.90;;;2.47;;
81685;SDS011;71102;50.960;6.888;2023-12-20T10:41:26;11.90;;;2.63;;
81685;SDS011;71102;50.960;6.888;2023-12-20T10:43:51;14.52;;;2.75;;
81685;SDS011;71102;50.960;6.888;2023-12-20T10:46:17;11.00;;;2.58;;
81685;SDS011;71102;50.960;6.888;2023-12-20T10:48:43;10.60;;;2.00;;
81685;SDS011;71102;50.960;6.888;2023-12-20T10:51:09;15.88;;;2.60;;
81685;SDS011;71102;50.960;6.888;2023-12-20T10:53:34;20.42;;;3.15;;
81685;SDS011;71102;50.960;6.888;2023-12-20T10:56:00;9.13;;;2.17;;
81685;SDS011;71102;50.960;6.888;2023-12-20T10:58:27;10.30;;;2.45;;
81685;SDS011;71102;50.960;6.888;2023-12-20T11:00:58;11.13;;;2.17;;
81685;SDS011;71102;50.960;6.888;2023-12-20T11:03:24;7.82;;;2.08;;
81685;SDS011;71102;50.960;6.888;2023-12-20T11:08:28;11.30;;;2.28;;
81685;SDS011;71102;50.960;6.888;2023-12-20T11:13:30;14.57;;;3.00;;
81685;SDS011;71102;50.960;6.888;2023-12-20T11:15:56;14.43;;;2.80;;
81685;SDS011;71102;50.960;6.888;2023-12-20T11:18:27;10.93;;;2.60;;
81685;SDS011;71102;50.960;6.888;2023-12-20T11:20:53;9.52;;;2.17;;
81685;SDS011;71102;50.960;6.888;2023-12-20T11:23:19;11.90;;;2.67;;
81685;SDS011;71102;50.960;6.888;2023-12-20T11:25:54;9.50;;;2.53;;
81685;SDS011;71102;50.960;6.888;2023-12-20T11:28:21;10.98;;;2.80;;
81685;SDS011;71102;50.960;6.888;2023-12-20T11:30:50;8.48;;;2.22;;
81685;SDS011;71102;50.960;6.888;2023-12-20T11:35:41;12.30;;;2.10;;
81685;SDS011;71102;50.960;6.888;2023-12-20T11:38:09;7.60;;;1.97;;
81685;SDS011;71102;50.960;6.888;2023-12-20T11:40:34;12.15;;;2.55;;
81685;SDS011;71102;50.960;6.888;2023-12-20T11:43:00;8.77;;;2.33;;
81685;SDS011;71102;50.960;6.888;2023-12-20T11:45:25;9.57;;;1.77;;
81685;SDS011;71102;50.960;6.888;2023-12-20T11:47:50;11.50;;;2.30;;
81685;SDS011;71102;50.960;6.888;2023-12-20T11:50:16;13.70;;;2.75;;
81685;SDS011;71102;50.960;6.888;2023-12-20T11:52:41;7.93;;;2.13;;
81685;SDS011;71102;50.960;6.888;2023-12-20T11:55:07;9.63;;;1.90;;
81685;SDS011;71102;50.960;6.888;2023-12-20T11:57:32;15.17;;;2.87;;
81685;SDS011;71102;50.960;6.888;2023-12-20T11:59:57;11.88;;;2.50;;
81685;SDS011;71102;50.960;6.888;2023-12-20T12:02:22;13.27;;;2.77;;
81685;SDS011;71102;50.960;6.888;2023-12-20T12:04:48;10.80;;;2.63;;
81685;SDS011;71102;50.960;6.888;2023-12-20T12:07:13;9.40;;;2.00;;
81685;SDS011;71102;50.960;6.888;2023-12-20T12:09:39;11.77;;;2.90;;
81685;SDS011;71102;50.960;6.888;2023-12-20T12:12:04;9.07;;;2.37;;
81685;SDS011;71102;50.960;6.888;2023-12-20T12:14:29;10.43;;;2.30;;
81685;SDS011;71102;50.960;6.888;2023-12-20T12:16:54;9.60;;;2.10;;
81685;SDS011;71102;50.960;6.888;2023-12-20T12:19:23;8.70;;;2.93;;
81685;SDS011;71102;50.960;6.888;2023-12-20T12:21:49;11.07;;;2.88;;
81685;SDS011;71102;50.960;6.888;2023-12-20T12:24:14;13.60;;;3.28;;
81685;SDS011;71102;50.960;6.888;2023-12-20T12:26:39;14.80;;;2.57;;
81685;SDS011;71102;50.960;6.888;2023-12-20T12:29:08;10.63;;;2.43;;
81685;SDS011;71102;50.960;6.888;2023-12-20T12:31:33;13.82;;;2.90;;
81685;SDS011;71102;50.960;6.888;2023-12-20T12:33:58;10.37;;;3.20;;
81685;SDS011;71102;50.960;6.888;2023-12-20T12:36:23;8.83;;;3.07;;
81685;SDS011;71102;50.960;6.888;2023-12-20T12:38:49;11.37;;;2.57;;
81685;SDS011;71102;50.960;6.888;2023-12-20T12:41:14;11.53;;;2.93;;
81685;SDS011;71102;50.960;6.888;2023-12-20T12:43:39;11.45;;;2.80;;
81685;SDS011;71102;50.960;6.888;2023-12-20T12:46:04;10.73;;;2.10;;
81685;SDS011;71102;50.960;6.888;2023-12-20T12:48:30;15.57;;;2.83;;
81685;SDS011;71102;50.960;6.888;2023-12-20T12:50:55;9.97;;;2.73;;
81685;SDS011;71102;50.960;6.888;2023-12-20T12:53:20;12.97;;;2.77;;
81685;SDS011;71102;50.960;6.888;2023-12-20T12:55:45;11.93;;;2.47;;
81685;SDS011;71102;50.960;6.888;2023-12-20T12:58:11;9.07;;;2.40;;
81685;SDS011;71102;50.960;6.888;2023-12-20T13:00:36;11.95;;;3.03;;
81685;SDS011;71102;50.960;6.888;2023-12-20T13:03:02;12.10;;;3.00;;
81685;SDS011;71102;50.960;6.888;2023-12-20T13:05:27;7.90;;;2.50;;
81685;SDS011;71102;50.960;6.888;2023-12-20T13:07:52;10.17;;;3.13;;
81685;SDS011;71102;50.960;6.888;2023-12-20T13:10:17;10.87;;;3.03;;
81685;SDS011;71102;50.960;6.888;2023-12-20T13:12:43;12.30;;;3.00;;
81685;SDS011;71102;50.960;6.888;2023-12-20T13:15:08;13.40;;;3.33;;
81685;SDS011;71102;50.960;6.888;2023-12-20T13:17:33;13.77;;;3.13;;
81685;SDS011;71102;50.960;6.888;2023-12-20T13:19:58;10.43;;;2.60;;
81685;SDS011;71102;50.960;6.888;2023-12-20T13:22:24;10.90;;;3.20;;
81685;SDS011;71102;50.960;6.888;2023-12-20T13:24:49;9.27;;;3.03;;
81685;SDS011;71102;50.960;6.888;2023-12-20T13:27:14;10.00;;;3.17;;
81685;SDS011;71102;50.960;6.888;2023-12-20T13:29:39;8.57;;;2.80;;
81685;SDS011;71102;50.960;6.888;2023-12-20T13:32:05;14.00;;;3.77;;
81685;SDS011;71102;50.960;6.888;2023-12-20T13:34:30;15.63;;;3.08;;
81685;SDS011;71102;50.960;6.888;2023-12-20T13:36:55;11.80;;;2.77;;
81685;SDS011;71102;50.960;6.888;2023-12-20T13:39:20;10.10;;;2.37;;
81685;SDS011;71102;50.960;6.888;2023-12-20T13:41:46;10.67;;;2.60;;
81685;SDS011;71102;50.960;6.888;2023-12-20T13:44:11;10.27;;;2.47;;
81685;SDS011;71102;50.960;6.888;2023-12-20T13:46:36;10.13;;;3.15;;
81685;SDS011;71102;50.960;6.888;2023-12-20T13:49:01;13.93;;;3.03;;
81685;SDS011;71102;50.960;6.888;2023-12-20T13:51:27;12.27;;;2.37;;
81685;SDS011;71102;50.960;6.888;2023-12-20T13:53:52;11.47;;;3.10;;
81685;SDS011;71102;50.960;6.888;2023-12-20T13:56:17;8.33;;;2.57;;
81685;SDS011;71102;50.960;6.888;2023-12-20T13:58:42;9.27;;;2.33;;
81685;SDS011;71102;50.960;6.888;2023-12-20T14:01:08;11.57;;;2.87;;
81685;SDS011;71102;50.960;6.888;2023-12-20T14:03:33;10.98;;;2.63;;
81685;SDS011;71102;50.960;6.888;2023-12-20T14:05:59;7.68;;;2.55;;
81685;SDS011;71102;50.960;6.888;2023-12-20T14:08:24;11.38;;;2.45;;
81685;SDS011;71102;50.960;6.888;2023-12-20T14:10:50;11.07;;;3.00;;
81685;SDS011;71102;50.960;6.888;2023-12-20T14:13:15;13.73;;;3.03;;
81685;SDS011;71102;50.960;6.888;2023-12-20T14:15:40;10.27;;;2.83;;
81685;SDS011;71102;50.960;6.888;2023-12-20T14:18:05;10.33;;;2.80;;
81685;SDS011;71102;50.960;6.888;2023-12-20T14:20:31;7.10;;;2.55;;
81685;SDS011;71102;50.960;6.888;2023-12-20T14:22:56;8.65;;;2.83;;
81685;SDS011;71102;50.960;6.888;2023-12-20T14:25:21;8.47;;;2.03;;
81685;SDS011;71102;50.960;6.888;2023-12-20T14:27:46;12.40;;;2.77;;
81685;SDS011;71102;50.960;6.888;2023-12-20T14:30:12;9.87;;;2.70;;
81685;SDS011;71102;50.960;6.888;2023-12-20T14:32:37;11.02;;;2.50;;
81685;SDS011;71102;50.960;6.888;2023-12-20T14:35:03;15.93;;;3.50;;
81685;SDS011;71102;50.960;6.888;2023-12-20T14:37:28;11.30;;;3.50;;